Time;durP1;ratioP1;P1;durP2;ratioP2;P2;SDS_P1;SDS_P2;PMS_P1;PMS_P2;Temp;Humidity;BMP_temperature;BMP_pressure;BME280_temperature;BME280_humidity;BME280_pressure;Samples;Min_cycle;Max_cycle;Signal;HPM_P1;HPM_P2
2023/09/03 00:01:56;;;;;;;15.27;11.93;;;13.10;99.90;;;;;;5004648;28;20046;-75
2023/09/03 00:04:22;;;;;;;13.77;11.60;;;13.00;99.90;;;;;;5002143;28;20112;-74
2023/09/03 00:06:47;;;;;;;12.88;11.45;;;13.00;99.90;;;;;;5035590;28;20045;-74
2023/09/03 00:09:13;;;;;;;14.82;11.70;;;13.00;99.90;;;;;;4997931;28;20061;-74
2023/09/03 00:11:39;;;;;;;15.40;12.57;;;13.00;99.90;;;;;;5009092;28;20042;-75
2023/09/03 00:14:05;;;;;;;15.00;11.68;;;13.00;99.90;;;;;;4993823;28;20125;-75
2023/09/03 00:16:31;;;;;;;18.88;11.85;;;13.00;99.90;;;;;;5006252;28;20100;-74
2023/09/03 00:18:57;;;;;;;14.13;11.75;;;12.90;99.90;;;;;;4990554;28;20050;-75
2023/09/03 00:21:23;;;;;;;13.85;11.65;;;12.90;99.90;;;;;;4990049;28;20038;-75
2023/09/03 00:23:50;;;;;;;13.02;11.07;;;12.80;99.90;;;;;;4993233;28;20042;-75
2023/09/03 00:26:19;;;;;;;14.32;11.88;;;12.80;99.90;;;;;;4993448;28;20376;-75
2023/09/03 00:28:44;;;;;;;14.38;11.32;;;12.80;99.90;;;;;;4986196;28;20043;-75
2023/09/03 00:31:10;;;;;;;13.65;10.60;;;12.70;99.90;;;;;;5025759;28;20050;-74
2023/09/03 00:33:37;;;;;;;15.90;10.55;;;12.70;99.90;;;;;;4972220;28;20117;-75
2023/09/03 00:36:05;;;;;;;12.50;9.50;;;12.70;99.90;;;;;;4991278;28;20038;-74
2023/09/03 00:38:31;;;;;;;13.55;11.02;;;12.60;99.90;;;;;;5020591;28;20084;-75
2023/09/03 00:40:57;;;;;;;14.25;10.50;;;12.60;99.90;;;;;;4997268;28;20049;-75
2023/09/03 00:43:23;;;;;;;11.48;9.32;;;12.60;99.90;;;;;;4985153;28;20034;-75
2023/09/03 00:45:50;;;;;;;12.65;9.68;;;12.50;99.90;;;;;;4975094;28;20093;-75
2023/09/03 00:48:23;;;;;;;12.65;10.68;;;12.50;99.90;;;;;;5003965;28;20499;-75
2023/09/03 00:50:52;;;;;;;13.43;10.82;;;12.50;99.90;;;;;;4996856;28;20124;-74
2023/09/03 00:53:20;;;;;;;12.25;9.75;;;12.40;99.90;;;;;;4975245;28;20046;-75
2023/09/03 00:55:46;;;;;;;12.27;10.15;;;12.40;99.90;;;;;;5035892;28;20081;-75
2023/09/03 00:58:13;;;;;;;12.07;10.18;;;12.40;99.90;;;;;;4972716;28;20038;-75
2023/09/03 01:00:39;;;;;;;14.30;11.63;;;12.30;99.90;;;;;;5001347;28;20495;-74
2023/09/03 01:03:05;;;;;;;16.25;11.93;;;12.30;99.90;;;;;;4990441;28;20054;-74
2023/09/03 01:05:31;;;;;;;16.13;11.57;;;12.30;99.90;;;;;;4997784;28;20042;-75
2023/09/03 01:07:59;;;;;;;16.98;13.30;;;12.30;99.90;;;;;;4997354;28;20044;-75
2023/09/03 01:10:44;;;;;;;13.63;12.00;;;12.30;99.90;;;;;;5018850;28;20050;-74
2023/09/03 01:13:26;;;;;;;16.67;13.05;;;12.30;99.90;;;;;;5018459;28;20696;-74
2023/09/03 01:15:55;;;;;;;14.40;11.87;;;12.30;99.90;;;;;;4998934;28;20055;-74
2023/09/03 01:18:28;;;;;;;17.05;12.50;;;12.30;99.90;;;;;;5037563;28;20380;-75
2023/09/03 01:21:07;;;;;;;15.43;12.90;;;12.20;99.90;;;;;;4989121;28;20050;-75
2023/09/03 01:24:02;;;;;;;17.63;12.68;;;12.20;99.90;;;;;;4998317;28;20077;-75
2023/09/03 01:26:50;;;;;;;16.27;11.52;;;12.20;99.90;;;;;;4997499;28;20038;-75
2023/09/03 01:29:17;;;;;;;15.00;12.25;;;12.20;99.90;;;;;;5033745;28;20038;-74
2023/09/03 01:31:44;;;;;;;19.00;12.13;;;12.20;99.90;;;;;;5032785;28;20042;-75
2023/09/03 01:34:11;;;;;;;17.70;13.82;;;12.20;99.90;;;;;;5024481;28;20049;-75
2023/09/03 01:36:38;;;;;;;14.95;12.77;;;12.20;99.90;;;;;;5001135;28;20040;-75
2023/09/03 01:39:03;;;;;;;18.38;12.93;;;12.10;99.90;;;;;;4989816;28;20514;-75
2023/09/03 01:41:32;;;;;;;12.98;11.48;;;12.10;99.90;;;;;;5016340;28;20045;-76
2023/09/03 01:43:58;;;;;;;13.05;11.13;;;12.10;99.90;;;;;;5032681;28;20035;-75
2023/09/03 01:47:09;;;;;;;12.10;10.20;;;12.00;99.90;;;;;;5001315;28;20041;-75
2023/09/03 01:49:42;;;;;;;13.80;11.35;;;11.90;99.90;;;;;;4991640;28;20044;-75
2023/09/03 01:52:26;;;;;;;14.30;11.50;;;11.60;99.90;;;;;;5004246;28;20831;-75
2023/09/03 01:54:54;;;;;;;14.38;11.95;;;11.90;99.90;;;;;;4996959;28;20503;-74
2023/09/03 01:57:27;;;;;;;13.60;11.57;;;11.80;99.90;;;;;;4996416;28;20073;-75
2023/09/03 01:59:56;;;;;;;15.82;11.88;;;11.90;99.90;;;;;;5005735;28;20573;-75
2023/09/03 02:02:23;;;;;;;15.88;13.30;;;11.80;99.90;;;;;;5026522;28;20121;-75
2023/09/03 02:04:49;;;;;;;16.00;12.20;;;11.80;99.90;;;;;;5022692;28;20038;-75
2023/09/03 02:07:15;;;;;;;13.18;10.35;;;11.80;99.90;;;;;;4957987;28;20034;-75
2023/09/03 02:09:40;;;;;;;10.35;8.70;;;11.80;99.90;;;;;;4988976;28;20188;-75
2023/09/03 02:12:07;;;;;;;9.82;8.82;;;11.80;99.90;;;;;;4996594;28;20084;-75
2023/09/03 02:14:33;;;;;;;14.38;10.57;;;11.80;99.90;;;;;;5024020;28;20053;-76
2023/09/03 02:16:59;;;;;;;11.88;10.57;;;11.70;99.90;;;;;;4986617;28;20424;-75
2023/09/03 02:19:24;;;;;;;13.70;11.60;;;11.70;99.90;;;;;;5023468;28;20088;-74
2023/09/03 02:21:50;;;;;;;13.63;11.90;;;11.70;99.90;;;;;;4991309;28;20488;-74
2023/09/03 02:24:16;;;;;;;17.60;13.60;;;11.70;99.90;;;;;;5006338;28;20050;-74
2023/09/03 02:26:43;;;;;;;18.55;13.02;;;11.80;99.90;;;;;;5036162;28;20046;-75
2023/09/03 02:29:09;;;;;;;16.85;12.32;;;11.80;99.90;;;;;;4997325;28;20377;-75
2023/09/03 02:31:35;;;;;;;14.95;11.63;;;11.80;99.90;;;;;;5008863;28;20041;-74
2023/09/03 02:34:02;;;;;;;14.38;11.13;;;11.80;99.90;;;;;;5032230;28;20568;-75
2023/09/03 02:36:28;;;;;;;13.48;11.10;;;11.80;99.90;;;;;;5013424;28;20121;-75
2023/09/03 02:39:02;;;;;;;14.48;11.40;;;11.70;99.90;;;;;;4987721;28;20130;-74
2023/09/03 02:41:29;;;;;;;16.38;12.82;;;11.70;99.90;;;;;;5020366;28;20121;-74
2023/09/03 02:43:57;;;;;;;16.58;12.27;;;11.70;99.90;;;;;;5000477;28;20035;-74
2023/09/03 02:46:23;;;;;;;14.45;11.77;;;11.70;99.90;;;;;;5022769;28;20034;-74
2023/09/03 02:48:49;;;;;;;13.98;12.05;;;11.70;99.90;;;;;;5000221;28;20033;-74
2023/09/03 02:51:15;;;;;;;16.05;13.35;;;11.60;99.90;;;;;;4983360;28;20085;-75
2023/09/03 02:53:42;;;;;;;18.88;14.48;;;11.60;99.90;;;;;;4955558;28;20038;-75
2023/09/03 02:56:08;;;;;;;17.15;14.02;;;11.70;99.90;;;;;;4972006;28;20038;-74
2023/09/03 02:58:34;;;;;;;16.83;13.75;;;11.70;99.90;;;;;;5028242;28;20046;-75
2023/09/03 03:01:07;;;;;;;15.90;13.05;;;11.70;99.90;;;;;;4971184;28;20077;-75
2023/09/03 03:03:33;;;;;;;15.18;12.70;;;11.70;99.90;;;;;;5006474;28;20038;-74
2023/09/03 03:05:59;;;;;;;18.50;13.68;;;11.70;99.90;;;;;;4993720;28;20038;-75
2023/09/03 03:08:25;;;;;;;17.25;13.45;;;11.70;99.90;;;;;;4989273;28;20046;-74
2023/09/03 03:10:51;;;;;;;13.07;11.68;;;11.70;99.90;;;;;;5004269;28;20380;-75
2023/09/03 03:13:17;;;;;;;16.33;12.90;;;11.70;99.90;;;;;;5033540;28;20049;-74
2023/09/03 03:15:42;;;;;;;13.82;12.43;;;11.70;99.90;;;;;;4988442;28;20034;-74
2023/09/03 03:18:08;;;;;;;14.80;12.23;;;11.70;99.90;;;;;;4971180;28;20426;-74
2023/09/03 03:20:35;;;;;;;13.38;12.02;;;11.60;99.90;;;;;;5000215;28;20073;-74
2023/09/03 03:23:00;;;;;;;15.63;12.05;;;11.60;99.90;;;;;;5006391;28;20037;-74
2023/09/03 03:25:26;;;;;;;19.10;13.45;;;11.60;99.90;;;;;;4989399;28;20242;-74
2023/09/03 03:27:52;;;;;;;14.60;13.07;;;11.60;99.90;;;;;;4971648;28;20524;-74
2023/09/03 03:30:18;;;;;;;14.48;11.98;;;11.50;99.90;;;;;;5013280;28;20076;-75
2023/09/03 03:32:43;;;;;;;14.00;11.48;;;11.50;99.90;;;;;;4989226;28;20038;-74
2023/09/03 03:35:09;;;;;;;13.88;11.80;;;11.50;99.90;;;;;;5000031;28;20487;-74
2023/09/03 03:37:35;;;;;;;15.73;11.95;;;11.50;99.90;;;;;;4991422;28;20106;-74
2023/09/03 03:40:01;;;;;;;16.30;12.65;;;11.40;99.90;;;;;;4988560;28;20025;-73
2023/09/03 03:42:27;;;;;;;12.85;11.52;;;11.40;99.90;;;;;;4998751;28;20082;-71
2023/09/03 03:44:53;;;;;;;13.50;11.55;;;11.40;99.90;;;;;;4993542;28;20124;-71
2023/09/03 03:47:18;;;;;;;12.75;11.15;;;11.40;99.90;;;;;;4993143;28;20045;-71
2023/09/03 03:49:44;;;;;;;16.65;10.63;;;11.40;99.90;;;;;;5003375;28;20033;-71
2023/09/03 03:52:10;;;;;;;12.63;10.80;;;11.30;99.90;;;;;;4985357;28;20605;-71
2023/09/03 03:54:36;;;;;;;13.00;11.40;;;11.30;99.90;;;;;;4992343;28;20045;-71
2023/09/03 03:57:02;;;;;;;13.60;12.05;;;11.30;99.90;;;;;;5007841;28;20042;-71
2023/09/03 03:59:28;;;;;;;13.82;12.20;;;11.30;99.90;;;;;;5026582;28;20623;-71
2023/09/03 04:01:53;;;;;;;14.30;11.90;;;11.30;99.90;;;;;;5002663;28;20046;-71
2023/09/03 04:04:21;;;;;;;14.88;13.18;;;11.30;99.90;;;;;;4994557;28;20041;-71
2023/09/03 04:06:47;;;;;;;17.63;14.25;;;11.30;99.90;;;;;;5014590;28;20101;-71
2023/09/03 04:09:13;;;;;;;14.90;13.07;;;11.30;99.90;;;;;;4991323;28;20043;-71
2023/09/03 04:11:39;;;;;;;18.85;13.95;;;11.30;99.90;;;;;;5010739;28;20049;-71
2023/09/03 04:14:04;;;;;;;17.05;14.35;;;11.30;99.90;;;;;;4998625;28;20451;-71
2023/09/03 04:16:30;;;;;;;15.45;13.60;;;11.30;99.90;;;;;;4992004;28;20138;-71
2023/09/03 04:18:56;;;;;;;17.48;13.52;;;11.20;99.90;;;;;;4968263;28;20539;-71
2023/09/03 04:21:22;;;;;;;16.30;13.48;;;11.20;99.90;;;;;;4989839;28;20054;-71
2023/09/03 04:23:47;;;;;;;19.42;13.38;;;11.20;99.90;;;;;;4973385;28;20033;-71
2023/09/03 04:26:13;;;;;;;15.45;12.95;;;11.20;99.90;;;;;;5026737;28;20487;-71
2023/09/03 04:28:40;;;;;;;17.40;13.35;;;11.20;99.90;;;;;;5001714;28;20569;-71
2023/09/03 04:31:08;;;;;;;15.73;11.57;;;11.20;99.90;;;;;;5004397;28;20129;-71
2023/09/03 04:33:36;;;;;;;15.48;11.68;;;11.10;99.90;;;;;;5003088;28;20076;-71
2023/09/03 04:36:02;;;;;;;16.30;11.27;;;11.10;99.90;;;;;;5016754;28;20038;-71
2023/09/03 04:38:29;;;;;;;13.73;11.90;;;11.10;99.90;;;;;;4993007;28;20034;-71
2023/09/03 04:40:55;;;;;;;14.38;12.43;;;11.20;99.90;;;;;;5006462;28;20074;-71
2023/09/03 04:43:22;;;;;;;15.60;11.70;;;11.10;99.90;;;;;;5003430;28;20113;-71
2023/09/03 04:45:50;;;;;;;14.70;11.45;;;11.10;99.90;;;;;;5004053;28;20030;-71
2023/09/03 04:48:17;;;;;;;13.95;12.10;;;11.10;99.90;;;;;;4992715;28;20523;-71
2023/09/03 04:50:43;;;;;;;16.15;12.32;;;11.10;99.90;;;;;;5010717;28;20041;-70
2023/09/03 04:53:11;;;;;;;15.35;12.75;;;11.10;99.90;;;;;;4999361;28;20558;-70
2023/09/03 04:55:37;;;;;;;20.10;14.43;;;11.10;99.90;;;;;;4977272;28;20046;-71
2023/09/03 04:58:03;;;;;;;16.48;14.00;;;11.10;99.90;;;;;;4999684;28;20046;-71
2023/09/03 05:00:30;;;;;;;16.15;12.48;;;11.10;99.90;;;;;;5011819;28;20419;-71
2023/09/03 05:02:56;;;;;;;14.68;13.13;;;11.10;99.90;;;;;;5006949;28;20034;-71
2023/09/03 05:05:23;;;;;;;23.10;15.63;;;11.10;99.90;;;;;;4988643;28;20513;-71
2023/09/03 05:07:49;;;;;;;16.33;13.43;;;11.20;99.90;;;;;;5003338;28;20045;-71
2023/09/03 05:10:15;;;;;;;14.38;12.30;;;11.20;99.90;;;;;;5012184;28;20038;-71
2023/09/03 05:12:41;;;;;;;18.70;13.35;;;11.20;99.90;;;;;;5040951;28;20379;-70
2023/09/03 05:15:10;;;;;;;18.42;13.90;;;11.20;99.90;;;;;;5006834;28;20547;-71
2023/09/03 05:17:36;;;;;;;18.27;14.85;;;11.30;99.90;;;;;;4990308;28;20471;-71
2023/09/03 05:20:03;;;;;;;18.13;14.55;;;11.20;99.90;;;;;;5020800;28;20096;-71
2023/09/03 05:22:29;;;;;;;22.35;17.30;;;11.30;99.90;;;;;;5010529;28;20564;-72
2023/09/03 05:24:55;;;;;;;21.25;17.08;;;11.30;99.90;;;;;;4990073;28;20045;-71
2023/09/03 05:27:20;;;;;;;24.67;17.58;;;11.30;99.90;;;;;;4990760;28;20045;-71
2023/09/03 05:29:47;;;;;;;24.63;18.23;;;11.40;99.90;;;;;;4981510;28;20058;-71
2023/09/03 05:32:13;;;;;;;24.55;17.08;;;11.50;99.90;;;;;;5006100;28;20077;-71
2023/09/03 05:34:39;;;;;;;14.70;11.98;;;11.50;99.90;;;;;;4985534;28;20062;-71
2023/09/03 05:37:05;;;;;;;15.38;11.18;;;11.50;99.90;;;;;;4982881;28;20034;-71
2023/09/03 05:39:31;;;;;;;13.65;10.48;;;11.50;99.90;;;;;;5021207;28;20100;-72
2023/09/03 05:41:57;;;;;;;14.57;10.63;;;11.50;99.90;;;;;;5010672;28;20042;-72
2023/09/03 05:44:23;;;;;;;13.35;10.40;;;11.50;99.90;;;;;;5012947;28;20060;-71
2023/09/03 05:46:49;;;;;;;16.38;12.45;;;11.50;99.90;;;;;;5016128;28;20042;-72
2023/09/03 05:49:15;;;;;;;17.08;11.40;;;11.50;99.90;;;;;;5026554;28;20072;-71
2023/09/03 05:51:41;;;;;;;15.90;11.77;;;11.50;99.90;;;;;;5028785;28;20041;-71
2023/09/03 05:54:07;;;;;;;17.38;13.52;;;11.50;99.90;;;;;;5008076;28;20030;-72
2023/09/03 05:56:35;;;;;;;21.15;13.15;;;11.50;99.90;;;;;;4990056;28;20045;-71
2023/09/03 05:59:05;;;;;;;15.35;11.73;;;11.50;99.90;;;;;;5010726;28;20092;-71
2023/09/03 06:01:31;;;;;;;15.32;12.63;;;11.60;99.90;;;;;;5001514;28;20041;-72
2023/09/03 06:03:57;;;;;;;23.88;15.45;;;11.60;99.90;;;;;;4996318;28;20129;-71
2023/09/03 06:06:29;;;;;;;18.52;13.48;;;11.70;99.90;;;;;;4993205;28;20069;-70
2023/09/03 06:08:54;;;;;;;19.58;15.00;;;11.80;99.90;;;;;;4981876;28;20117;-73
2023/09/03 06:11:20;;;;;;;21.92;15.80;;;11.90;99.90;;;;;;5004093;28;20130;-72
2023/09/03 06:13:46;;;;;;;18.25;14.20;;;12.00;99.90;;;;;;5003473;28;20046;-72
2023/09/03 06:16:12;;;;;;;18.25;14.00;;;12.10;99.90;;;;;;5016863;28;21556;-72
2023/09/03 06:18:39;;;;;;;21.45;15.02;;;12.10;99.90;;;;;;5005025;28;20049;-73
2023/09/03 06:21:05;;;;;;;24.30;16.50;;;12.20;99.90;;;;;;5027505;28;20050;-72
2023/09/03 06:23:30;;;;;;;21.58;15.45;;;12.30;99.90;;;;;;5007980;28;20037;-72
2023/09/03 06:25:56;;;;;;;24.40;17.05;;;12.40;99.90;;;;;;4988255;28;20174;-72
2023/09/03 06:28:22;;;;;;;26.67;19.10;;;12.50;99.90;;;;;;4999504;28;20060;-72
2023/09/03 06:30:48;;;;;;;24.30;18.38;;;12.60;99.90;;;;;;4983491;28;20041;-72
2023/09/03 06:33:14;;;;;;;28.13;19.40;;;12.70;99.90;;;;;;4985678;28;20033;-72
2023/09/03 06:35:39;;;;;;;21.13;16.38;;;12.80;99.90;;;;;;4961642;28;20042;-72
2023/09/03 06:38:05;;;;;;;26.17;18.58;;;12.90;99.90;;;;;;4989730;28;20057;-72
2023/09/03 06:40:33;;;;;;;21.83;16.70;;;13.00;99.90;;;;;;4958325;28;20129;-72
2023/09/03 06:42:59;;;;;;;30.10;20.27;;;13.00;99.90;;;;;;5021156;28;20040;-72
2023/09/03 06:45:26;;;;;;;36.13;22.77;;;13.20;99.90;;;;;;4993565;28;20038;-72
2023/09/03 06:47:51;;;;;;;30.30;20.90;;;13.30;99.90;;;;;;4973275;28;20128;-72
2023/09/03 06:50:17;;;;;;;26.90;18.45;;;13.40;99.90;;;;;;4997191;28;20133;-72
2023/09/03 06:52:43;;;;;;;24.42;18.00;;;13.50;99.90;;;;;;4987429;28;20038;-72
2023/09/03 06:55:08;;;;;;;20.38;16.92;;;13.60;99.90;;;;;;4989516;28;20038;-72
2023/09/03 06:57:34;;;;;;;20.00;14.65;;;13.70;99.90;;;;;;5007714;28;20394;-72
2023/09/03 07:00:05;;;;;;;18.35;14.85;;;13.80;99.90;;;;;;5019046;28;20038;-72
2023/09/03 07:02:37;;;;;;;17.52;15.70;;;13.90;99.90;;;;;;5016304;28;20053;-72
2023/09/03 07:05:02;;;;;;;17.83;14.85;;;14.00;99.90;;;;;;5010798;28;20038;-72
2023/09/03 07:07:28;;;;;;;18.20;12.63;;;14.10;99.90;;;;;;4988088;28;20038;-72
2023/09/03 07:09:55;;;;;;;13.35;11.93;;;14.20;99.90;;;;;;5004056;28;20041;-72
2023/09/03 07:12:21;;;;;;;14.85;10.73;;;14.30;99.90;;;;;;5033476;28;20192;-71
2023/09/03 07:14:47;;;;;;;12.65;10.27;;;14.50;99.90;;;;;;4997225;28;20041;-71
2023/09/03 07:17:13;;;;;;;12.95;11.35;;;14.50;99.90;;;;;;5002632;28;20385;-72
2023/09/03 07:19:38;;;;;;;12.82;10.68;;;14.70;99.90;;;;;;5000224;28;20054;-71
2023/09/03 07:22:04;;;;;;;11.55;9.30;;;14.80;99.90;;;;;;5003563;28;20046;-72
2023/09/03 07:24:30;;;;;;;8.30;7.18;;;15.00;99.90;;;;;;4981653;28;20518;-72
2023/09/03 07:26:56;;;;;;;10.05;8.63;;;15.10;99.90;;;;;;4991299;28;20495;-72
2023/09/03 07:29:21;;;;;;;7.60;6.57;;;15.30;99.90;;;;;;5015997;28;20038;-72
2023/09/03 07:31:47;;;;;;;8.38;6.75;;;15.50;99.90;;;;;;5034181;28;20049;-72
2023/09/03 07:34:14;;;;;;;7.90;5.82;;;15.70;99.90;;;;;;4995043;28;20499;-72
2023/09/03 07:36:40;;;;;;;7.18;5.57;;;15.90;99.90;;;;;;4987600;28;20502;-72
2023/09/03 07:39:10;;;;;;;6.53;5.40;;;16.00;99.90;;;;;;5034755;28;20131;-72
2023/09/03 07:41:37;;;;;;;8.60;5.00;;;16.20;99.90;;;;;;5023112;28;20041;-71
2023/09/03 07:44:03;;;;;;;7.63;4.20;;;16.40;99.90;;;;;;4999496;28;20045;-71
2023/09/03 07:46:29;;;;;;;6.78;3.78;;;16.50;99.90;;;;;;5004417;28;20045;-71
2023/09/03 07:48:55;;;;;;;5.80;3.88;;;16.60;99.90;;;;;;5001136;28;20042;-71
2023/09/03 07:51:21;;;;;;;5.18;4.45;;;16.80;99.90;;;;;;5034635;28;20069;-71
2023/09/03 07:53:47;;;;;;;4.88;3.80;;;16.90;99.90;;;;;;5022900;28;20042;-71
2023/09/03 07:56:17;;;;;;;4.57;4.07;;;17.00;99.90;;;;;;5036966;28;20407;-71
2023/09/03 07:58:43;;;;;;;5.35;4.10;;;17.20;99.90;;;;;;5034623;28;20042;-71
2023/09/03 08:01:14;;;;;;;5.75;4.32;;;17.20;99.90;;;;;;5011992;28;20066;-71
2023/09/03 08:03:42;;;;;;;6.43;3.63;;;17.30;99.90;;;;;;4988772;28;20128;-71
2023/09/03 08:06:08;;;;;;;8.70;4.68;;;17.30;99.90;;;;;;4991263;28;20206;-71
2023/09/03 08:08:34;;;;;;;5.65;4.68;;;17.40;99.90;;;;;;5004246;28;20038;-71
2023/09/03 08:11:01;;;;;;;12.45;4.03;;;17.40;99.90;;;;;;5000135;28;20067;-71
2023/09/03 08:13:27;;;;;;;5.43;3.45;;;17.50;99.90;;;;;;4972367;28;20038;-71
2023/09/03 08:15:53;;;;;;;4.75;3.13;;;17.50;99.90;;;;;;4994921;28;20042;-71
2023/09/03 08:18:21;;;;;;;3.80;3.30;;;17.60;99.90;;;;;;4989579;28;20095;-70
2023/09/03 08:20:49;;;;;;;4.60;2.85;;;17.60;99.90;;;;;;5015259;28;20054;-70
2023/09/03 08:23:15;;;;;;;10.25;4.18;;;17.60;99.90;;;;;;5001977;28;20098;-71
2023/09/03 08:25:41;;;;;;;5.18;3.00;;;17.60;99.90;;;;;;5007780;28;20044;-71
2023/09/03 08:28:11;;;;;;;4.68;3.33;;;17.70;99.90;;;;;;5005449;28;20166;-70
2023/09/03 08:30:38;;;;;;;3.63;2.58;;;17.70;99.90;;;;;;5007508;28;20054;-70
2023/09/03 08:33:04;;;;;;;7.85;3.47;;;17.80;99.90;;;;;;5004177;28;20038;-70
2023/09/03 08:35:30;;;;;;;7.50;3.47;;;17.80;99.90;;;;;;5051780;28;20045;-70
2023/09/03 08:37:56;;;;;;;3.90;2.90;;;17.90;99.90;;;;;;5026500;28;20408;-70
2023/09/03 08:40:23;;;;;;;5.72;2.88;;;17.90;99.90;;;;;;5004963;28;21473;-70
2023/09/03 08:42:49;;;;;;;5.30;3.58;;;17.90;99.90;;;;;;5004068;28;20045;-71
2023/09/03 08:45:19;;;;;;;6.25;4.05;;;18.00;99.90;;;;;;5020901;28;20404;-70
2023/09/03 08:47:45;;;;;;;7.03;4.20;;;18.00;99.90;;;;;;5007945;28;20033;-70
2023/09/03 08:50:12;;;;;;;5.18;3.00;;;18.10;99.90;;;;;;5025665;28;20503;-70
2023/09/03 08:52:40;;;;;;;4.13;3.30;;;18.20;99.90;;;;;;5010994;28;20037;-70
2023/09/03 08:55:07;;;;;;;7.45;3.42;;;18.30;99.90;;;;;;5005319;28;20042;-71
2023/09/03 08:57:34;;;;;;;4.28;2.80;;;18.50;99.90;;;;;;5051849;28;20052;-70
2023/09/03 09:00:14;;;;;;;4.50;2.70;;;18.70;99.90;;;;;;5000341;28;20038;-70
2023/09/03 09:02:42;;;;;;;4.60;2.80;;;18.80;99.90;;;;;;5028020;28;20125;-70
2023/09/03 09:05:09;;;;;;;3.40;2.53;;;18.80;99.90;;;;;;5005597;28;20112;-70
2023/09/03 09:07:35;;;;;;;4.88;2.75;;;18.90;99.90;;;;;;5026883;28;20104;-71
2023/09/03 09:10:11;;;;;;;5.13;2.95;;;18.90;99.90;;;;;;5033813;28;20034;-70
2023/09/03 09:12:37;;;;;;;4.63;2.85;;;18.90;99.90;;;;;;4993781;28;20052;-70
2023/09/03 09:15:04;;;;;;;4.40;2.67;;;18.90;99.90;;;;;;5008144;28;20041;-70
2023/09/03 09:17:40;;;;;;;4.13;2.53;;;19.00;99.90;;;;;;5021733;28;20043;-70
2023/09/03 09:20:12;;;;;;;3.72;2.78;;;19.00;99.90;;;;;;5016753;28;20064;-70
2023/09/03 09:22:41;;;;;;;4.85;2.92;;;19.10;99.90;;;;;;5046628;28;20041;-71
2023/09/03 09:25:09;;;;;;;4.60;3.25;;;19.20;99.90;;;;;;5011680;28;20049;-70
2023/09/03 09:27:38;;;;;;;4.07;3.30;;;19.30;99.90;;;;;;5011096;28;20124;-70
2023/09/03 09:30:15;;;;;;;4.75;3.70;;;19.40;99.90;;;;;;4979097;28;20034;-70
2023/09/03 09:32:42;;;;;;;5.50;3.25;;;19.60;99.90;;;;;;5033816;28;20112;-71
2023/09/03 09:35:09;;;;;;;4.85;2.70;;;19.70;99.90;;;;;;5028020;28;20049;-71
2023/09/03 09:37:39;;;;;;;6.22;2.53;;;19.90;99.90;;;;;;5011680;28;20042;-70
2023/09/03 09:40:09;;;;;;;4.93;2.53;;;20.00;99.90;;;;;;5011180;28;20038;-71
2023/09/03 09:42:50;;;;;;;8.85;2.50;;;20.10;99.90;;;;;;4981377;28;20040;-70
2023/09/03 09:45:16;;;;;;;5.90;3.20;;;20.30;99.90;;;;;;5009005;28;20495;-70
2023/09/03 09:47:42;;;;;;;5.63;2.58;;;20.30;99.90;;;;;;5019687;28;20039;-70
2023/09/03 09:50:08;;;;;;;3.08;2.60;;;20.30;99.90;;;;;;5013070;28;20041;-70
2023/09/03 09:52:36;;;;;;;3.72;2.30;;;20.30;99.90;;;;;;5012258;28;20463;-70
2023/09/03 09:55:02;;;;;;;2.85;2.03;;;20.40;99.90;;;;;;5009043;28;20060;-70
2023/09/03 09:57:27;;;;;;;2.65;1.85;;;20.50;99.90;;;;;;4994694;28;20499;-70
2023/09/03 10:00:04;;;;;;;3.67;2.95;;;20.60;99.90;;;;;;5014946;28;20053;-69
2023/09/03 10:02:31;;;;;;;4.40;3.08;;;20.70;99.90;;;;;;5011454;28;20121;-70
2023/09/03 10:04:57;;;;;;;9.27;3.35;;;20.70;99.90;;;;;;5012020;28;20045;-70
2023/09/03 10:07:23;;;;;;;5.22;2.70;;;20.80;99.90;;;;;;5012034;28;20034;-70
2023/09/03 10:09:49;;;;;;;4.95;2.20;;;20.80;99.90;;;;;;5028500;28;20040;-69
2023/09/03 10:12:15;;;;;;;3.15;2.28;;;20.80;99.90;;;;;;5011469;28;20042;-70
2023/09/03 10:14:41;;;;;;;2.85;1.77;;;20.80;99.90;;;;;;4997756;28;20046;-70
2023/09/03 10:17:08;;;;;;;3.45;1.90;;;20.80;99.90;;;;;;5044576;28;20056;-70
2023/09/03 10:19:55;;;;;;;4.38;2.10;;;20.70;99.90;;;;;;5011853;28;20176;-70
2023/09/03 10:22:23;;;;;;;2.80;1.90;;;20.80;99.90;;;;;;5008548;28;20046;-70
2023/09/03 10:25:06;;;;;;;3.80;1.70;;;20.80;99.90;;;;;;5011893;28;20313;-70
2023/09/03 10:27:35;;;;;;;3.63;2.00;;;20.90;99.90;;;;;;5011830;28;20080;-69
2023/09/03 10:30:05;;;;;;;2.83;2.10;;;20.90;99.90;;;;;;5012030;28;20037;-69
2023/09/03 10:32:33;;;;;;;2.75;2.05;;;21.00;99.90;;;;;;5027320;28;20053;-69
2023/09/03 10:35:06;;;;;;;2.78;2.15;;;20.90;99.90;;;;;;5013719;28;20518;-69
2023/09/03 10:37:36;;;;;;;3.58;2.22;;;21.00;99.90;;;;;;5019664;28;20092;-69
2023/09/03 10:40:22;;;;;;;3.83;2.70;;;21.10;99.90;;;;;;5028092;28;20069;-69
2023/09/03 10:42:52;;;;;;;2.45;2.15;;;21.20;99.90;;;;;;4994291;28;20085;-69
2023/09/03 10:45:19;;;;;;;2.80;2.33;;;21.20;99.90;;;;;;5025190;28;20064;-70
2023/09/03 10:48:05;;;;;;;4.28;2.40;;;21.40;99.90;;;;;;5007327;28;20517;-69
2023/09/03 10:50:40;;;;;;;4.93;2.20;;;21.50;99.90;;;;;;5041482;28;20060;-69
2023/09/03 10:53:06;;;;;;;3.88;2.28;;;21.40;99.90;;;;;;5008189;28;20037;-69
2023/09/03 10:55:32;;;;;;;6.20;2.45;;;21.50;99.90;;;;;;5041747;28;20049;-68
2023/09/03 10:58:10;;;;;;;2.88;1.65;;;21.50;99.90;;;;;;4998777;28;20491;-69
2023/09/03 11:00:37;;;;;;;3.15;2.00;;;21.60;99.90;;;;;;5001444;28;20113;-68
2023/09/03 11:03:21;;;;;;;3.35;1.90;;;21.60;99.90;;;;;;5022308;28;20034;-70
2023/09/03 11:06:20;;;;;;;4.57;2.15;;;21.80;99.90;;;;;;5032299;28;20049;-70
2023/09/03 11:08:59;;;;;;;3.47;2.20;;;21.90;99.90;;;;;;5015273;28;20125;-69
2023/09/03 11:11:28;;;;;;;3.20;2.00;;;22.00;99.90;;;;;;5005635;28;20128;-70
2023/09/03 11:13:56;;;;;;;3.35;1.80;;;22.00;99.90;;;;;;4997636;28;20038;-70
2023/09/03 11:16:29;;;;;;;2.35;1.77;;;22.10;99.90;;;;;;4990307;28;20038;-69
2023/09/03 11:18:56;;;;;;;3.70;2.30;;;22.10;99.90;;;;;;4986965;28;20107;-72
2023/09/03 11:21:26;;;;;;;2.83;2.38;;;22.10;99.90;;;;;;4972751;28;20092;-71
2023/09/03 11:24:14;;;;;;;2.80;1.73;;;22.30;99.90;;;;;;5016936;28;20072;-71
2023/09/03 11:26:40;;;;;;;4.72;2.30;;;22.30;99.90;;;;;;5003511;28;20038;-71
2023/09/03 11:29:24;;;;;;;5.78;1.92;;;22.40;99.90;;;;;;4986901;28;20108;-70
2023/09/03 11:31:51;;;;;;;3.03;2.00;;;22.50;99.90;;;;;;4996212;28;20042;-71
2023/09/03 11:34:28;;;;;;;3.33;1.95;;;22.50;99.90;;;;;;5014448;28;20042;-70
2023/09/03 11:36:55;;;;;;;4.43;2.47;;;22.60;99.90;;;;;;4988704;28;20164;-69
2023/09/03 11:39:22;;;;;;;2.55;1.88;;;22.60;99.90;;;;;;5004229;28;20042;-71
2023/09/03 11:41:48;;;;;;;2.88;2.00;;;22.50;99.90;;;;;;4990979;28;20050;-71
2023/09/03 11:44:21;;;;;;;4.10;2.28;;;22.50;99.90;;;;;;4988986;28;20091;-70
2023/09/03 11:47:01;;;;;;;4.05;2.05;;;22.60;99.90;;;;;;4997198;28;20571;-70
2023/09/03 11:49:26;;;;;;;1.95;1.60;;;22.80;99.90;;;;;;5003054;28;20044;-70
2023/09/03 11:51:53;;;;;;;2.33;1.98;;;22.80;99.90;;;;;;5022314;28;20042;-70
2023/09/03 11:54:24;;;;;;;2.22;2.03;;;22.80;99.90;;;;;;4997467;28;20435;-70
2023/09/03 11:56:50;;;;;;;3.00;2.10;;;22.70;99.90;;;;;;5004142;28;20139;-71
2023/09/03 11:59:16;;;;;;;2.25;1.60;;;22.60;99.90;;;;;;5007231;28;20056;-70
2023/09/03 12:01:42;;;;;;;2.63;1.50;;;22.60;99.90;;;;;;4967001;28;20038;-71
2023/09/03 12:04:08;;;;;;;3.13;1.70;;;22.70;99.90;;;;;;4976374;28;20076;-71
2023/09/03 12:06:38;;;;;;;3.78;1.70;;;22.80;99.90;;;;;;4999357;28;20491;-71
2023/09/03 12:09:04;;;;;;;2.17;1.70;;;22.90;99.90;;;;;;5006452;28;20038;-71
2023/09/03 12:11:31;;;;;;;2.80;2.00;;;23.10;99.90;;;;;;4989932;28;20574;-71
2023/09/03 12:13:57;;;;;;;5.95;2.25;;;23.10;99.90;;;;;;4990194;28;20033;-71
2023/09/03 12:16:24;;;;;;;3.50;1.90;;;23.20;99.90;;;;;;4992138;28;20137;-71
2023/09/03 12:19:01;;;;;;;3.42;1.90;;;23.20;99.90;;;;;;5018741;28;20427;-71
2023/09/03 12:21:35;;;;;;;2.03;1.65;;;23.30;99.90;;;;;;5004768;28;20046;-71
2023/09/03 12:24:03;;;;;;;3.80;1.67;;;23.40;99.90;;;;;;5016020;28;20037;-69
2023/09/03 12:26:31;;;;;;;2.20;1.80;;;23.30;99.90;;;;;;4988100;28;20037;-71
2023/09/03 12:28:58;;;;;;;2.72;2.08;;;23.30;99.90;;;;;;5009348;28;20072;-71
2023/09/03 12:31:42;;;;;;;2.80;1.77;;;23.30;99.90;;;;;;4992274;28;20044;-70
2023/09/03 12:34:08;;;;;;;2.90;1.83;;;23.40;99.90;;;;;;4992616;28;20449;-70
2023/09/03 12:36:54;;;;;;;3.05;1.83;;;23.40;99.90;;;;;;5003537;28;20048;-71
2023/09/03 12:39:35;;;;;;;2.92;1.85;;;23.50;99.90;;;;;;4997112;28;20085;-71
2023/09/03 12:42:03;;;;;;;2.72;2.25;;;23.40;99.90;;;;;;5011245;28;20042;-68